Time;durP1;ratioP1;P1;durP2;ratioP2;P2;SDS_P1;SDS_P2;PMS_P1;PMS_P2;Temp;Humidity;BMP_temperature;BMP_pressure;BME280_temperature;BME280_humidity;BME280_pressure;Samples;Min_cycle;Max_cycle;Signal;HPM_P1;HPM_P2
2022/10/25 00:00:04;;;;;;;41.95;26.25;;;22.00;65.00;;;;;;5008917;28;20635;-72
2022/10/25 00:02:37;;;;;;;25.80;13.10;;;22.00;64.60;;;;;;5007057;28;20061;-72
2022/10/25 00:05:04;;;;;;;29.95;15.85;;;22.00;65.50;;;;;;5029581;28;20080;-73
2022/10/25 00:07:30;;;;;;;36.00;14.68;;;22.00;65.70;;;;;;5005105;28;20117;-72
2022/10/25 00:09:55;;;;;;;29.88;13.85;;;22.10;66.00;;;;;;5007421;28;20108;-73
2022/10/25 00:12:21;;;;;;;22.83;12.75;;;22.10;66.10;;;;;;5015800;28;20025;-73
2022/10/25 00:14:47;;;;;;;21.30;12.93;;;22.10;65.80;;;;;;5007489;28;20122;-72
2022/10/25 00:17:13;;;;;;;27.33;12.52;;;22.20;66.00;;;;;;5011160;28;20086;-72
2022/10/25 00:19:38;;;;;;;24.80;12.52;;;22.10;66.50;;;;;;5019814;28;20025;-73
2022/10/25 00:22:04;;;;;;;23.25;12.02;;;22.20;67.60;;;;;;5017606;28;20071;-72
2022/10/25 00:24:30;;;;;;;24.98;11.57;;;22.20;66.70;;;;;;5008955;28;20145;-72
2022/10/25 00:26:56;;;;;;;30.40;12.68;;;22.20;67.10;;;;;;5015907;28;20465;-72
2022/10/25 00:29:21;;;;;;;23.02;11.93;;;22.20;67.00;;;;;;5025535;28;20053;-72
2022/10/25 00:31:47;;;;;;;28.75;12.13;;;22.20;67.90;;;;;;5011160;28;20069;-72
2022/10/25 00:34:13;;;;;;;27.38;12.77;;;22.20;67.10;;;;;;5010728;28;20022;-72
2022/10/25 00:36:39;;;;;;;23.45;12.02;;;22.20;67.10;;;;;;5018717;28;20029;-72
2022/10/25 00:39:05;;;;;;;26.88;11.90;;;22.20;67.60;;;;;;5013993;28;20026;-72
2022/10/25 00:41:32;;;;;;;20.58;11.23;;;22.20;68.40;;;;;;5012489;28;20026;-72
2022/10/25 00:44:35;;;;;;;21.00;11.00;;;22.20;67.80;;;;;;5013291;28;20030;-72
2022/10/25 00:47:19;;;;;;;20.55;12.13;;;22.20;67.80;;;;;;5002574;28;20032;-72
2022/10/25 00:49:58;;;;;;;20.90;11.07;;;22.20;67.90;;;;;;4990978;28;20520;-72
2022/10/25 00:52:25;;;;;;;20.15;10.77;;;22.20;68.00;;;;;;5010857;28;20044;-72
2022/10/25 00:54:53;;;;;;;20.38;10.63;;;22.20;68.30;;;;;;5008711;28;20505;-72
2022/10/25 00:57:25;;;;;;;22.73;11.23;;;22.20;69.10;;;;;;5015213;28;20057;-73
2022/10/25 00:59:51;;;;;;;21.95;10.93;;;22.20;69.70;;;;;;5009759;28;20032;-72
2022/10/25 01:02:18;;;;;;;18.33;10.57;;;22.20;68.40;;;;;;4996230;28;20027;-72
2022/10/25 01:04:44;;;;;;;18.85;10.90;;;22.20;68.90;;;;;;5002171;28;20033;-72
2022/10/25 01:07:10;;;;;;;21.35;11.00;;;22.20;69.00;;;;;;5011899;28;20034;-72
2022/10/25 01:09:38;;;;;;;21.52;11.15;;;22.20;68.40;;;;;;5019964;28;20368;-72
2022/10/25 01:12:04;;;;;;;18.10;10.35;;;22.20;68.90;;;;;;5015458;28;20596;-72
2022/10/25 01:14:40;;;;;;;19.70;11.07;;;22.20;69.30;;;;;;5016310;28;20033;-73
2022/10/25 01:17:31;;;;;;;17.17;10.38;;;22.20;69.00;;;;;;5012203;28;20432;-72
2022/10/25 01:20:15;;;;;;;17.95;10.38;;;22.20;69.00;;;;;;5021981;28;20090;-73
2022/10/25 01:22:56;;;;;;;18.73;9.70;;;22.20;70.30;;;;;;5020033;28;20029;-72
2022/10/25 01:25:56;;;;;;;18.02;10.15;;;22.20;68.70;;;;;;5007616;28;20121;-73
2022/10/25 01:28:46;;;;;;;18.88;9.98;;;22.20;69.90;;;;;;4987098;28;20483;-71
2022/10/25 01:31:34;;;;;;;15.55;9.77;;;22.20;68.80;;;;;;4999197;28;20054;-71
2022/10/25 01:34:05;;;;;;;18.20;10.27;;;22.20;70.50;;;;;;5006931;28;20052;-70
2022/10/25 01:36:56;;;;;;;19.90;9.93;;;22.20;69.30;;;;;;5019195;28;20030;-72
2022/10/25 01:39:31;;;;;;;14.90;9.65;;;22.20;69.70;;;;;;5021882;28;20091;-72
2022/10/25 01:42:05;;;;;;;18.65;9.68;;;22.20;69.70;;;;;;5015208;28;20037;-72
2022/10/25 01:44:30;;;;;;;17.00;9.60;;;22.20;69.10;;;;;;5014820;28;20392;-72
2022/10/25 01:47:30;;;;;;;14.73;9.00;;;22.20;69.30;;;;;;5012975;28;20034;-72
2022/10/25 01:50:07;;;;;;;15.68;9.23;;;22.20;69.40;;;;;;4976558;28;20046;-72
2022/10/25 01:52:33;;;;;;;20.85;9.63;;;22.20;69.20;;;;;;5013740;28;20033;-72
2022/10/25 01:54:59;;;;;;;15.82;9.50;;;22.20;69.50;;;;;;5014930;28;20022;-72
2022/10/25 01:57:42;;;;;;;16.27;8.88;;;22.20;69.60;;;;;;5010558;28;20033;-72
2022/10/25 02:00:16;;;;;;;18.42;10.50;;;22.20;69.40;;;;;;5013286;28;20069;-71
2022/10/25 02:03:15;;;;;;;17.10;9.68;;;22.20;69.90;;;;;;5002830;28;20090;-72
2022/10/25 02:05:52;;;;;;;21.45;9.98;;;22.20;70.00;;;;;;5033628;28;20036;-71
2022/10/25 02:08:33;;;;;;;16.25;10.07;;;22.30;70.10;;;;;;5008854;28;20418;-72
2022/10/25 02:11:27;;;;;;;16.83;8.80;;;22.20;70.20;;;;;;5019793;28;20064;-72
2022/10/25 02:14:13;;;;;;;18.77;9.32;;;22.20;70.00;;;;;;5023530;28;20398;-72
2022/10/25 02:17:16;;;;;;;14.70;8.63;;;22.30;70.40;;;;;;5005168;28;20120;-71
2022/10/25 02:19:49;;;;;;;16.42;9.00;;;22.30;70.10;;;;;;4999290;28;20121;-71
2022/10/25 02:22:16;;;;;;;17.40;9.32;;;22.30;70.50;;;;;;5011145;28;20033;-70
2022/10/25 02:24:44;;;;;;;15.27;8.88;;;22.30;70.30;;;;;;5011448;28;20038;-72
2022/10/25 02:27:12;;;;;;;16.48;9.48;;;22.30;70.40;;;;;;4990669;28;20045;-71
2022/10/25 02:29:39;;;;;;;14.63;8.65;;;22.30;70.60;;;;;;5001983;28;20549;-71
2022/10/25 02:32:05;;;;;;;19.05;9.13;;;22.30;70.30;;;;;;4991563;28;20406;-72
2022/10/25 02:34:31;;;;;;;16.25;8.80;;;22.30;70.70;;;;;;4991735;28;20029;-71
2022/10/25 02:36:57;;;;;;;15.13;8.77;;;22.30;70.80;;;;;;4991691;28;20033;-71
2022/10/25 02:39:26;;;;;;;16.35;8.40;;;22.30;70.80;;;;;;4991449;28;20030;-71
2022/10/25 02:41:51;;;;;;;14.13;8.43;;;22.30;70.90;;;;;;4991263;28;20086;-71
2022/10/25 02:44:17;;;;;;;17.48;9.13;;;22.30;70.90;;;;;;5009696;28;20498;-72
2022/10/25 02:46:43;;;;;;;15.35;8.65;;;22.30;71.40;;;;;;5010381;28;20030;-72
2022/10/25 02:49:08;;;;;;;14.68;8.82;;;22.30;71.40;;;;;;5009775;28;20475;-72
2022/10/25 02:51:34;;;;;;;13.98;8.60;;;22.30;71.50;;;;;;5010781;28;20037;-72
2022/10/25 02:54:01;;;;;;;16.00;8.80;;;22.30;71.80;;;;;;5010926;28;20022;-72
2022/10/25 02:56:27;;;;;;;15.23;8.57;;;22.30;71.60;;;;;;5009713;28;20059;-71
2022/10/25 02:58:56;;;;;;;15.85;8.57;;;22.30;71.60;;;;;;5009540;28;20521;-72
2022/10/25 03:01:22;;;;;;;16.23;8.68;;;22.30;71.40;;;;;;5010719;28;20160;-71
2022/10/25 03:03:49;;;;;;;14.50;8.73;;;22.30;71.50;;;;;;5010531;28;20480;-72
2022/10/25 03:06:15;;;;;;;14.57;8.20;;;22.30;71.60;;;;;;5010505;28;20038;-72
2022/10/25 03:08:42;;;;;;;14.25;8.70;;;22.30;71.50;;;;;;5010822;28;20032;-72
2022/10/25 03:11:09;;;;;;;17.10;8.40;;;22.30;71.60;;;;;;5009358;28;20041;-71
2022/10/25 03:13:35;;;;;;;15.77;8.85;;;22.30;71.60;;;;;;5015848;28;20086;-72
2022/10/25 03:16:01;;;;;;;14.55;8.25;;;22.30;71.60;;;;;;5009649;28;20026;-72
2022/10/25 03:18:27;;;;;;;13.95;7.97;;;22.30;71.80;;;;;;5019329;28;20099;-72
2022/10/25 03:20:59;;;;;;;16.20;7.82;;;22.30;71.70;;;;;;4999614;28;20413;-72
2022/10/25 03:23:25;;;;;;;32.50;8.30;;;22.30;71.50;;;;;;5014452;28;20518;-72
2022/10/25 03:25:56;;;;;;;15.32;8.05;;;22.30;71.80;;;;;;5010239;28;20049;-72
2022/10/25 03:28:23;;;;;;;16.77;7.75;;;22.30;71.50;;;;;;5017599;28;20487;-72
2022/10/25 03:30:49;;;;;;;16.23;8.32;;;22.30;72.20;;;;;;5019565;28;20406;-71
2022/10/25 03:33:15;;;;;;;13.15;7.57;;;22.30;71.90;;;;;;5015001;28;20705;-72
2022/10/25 03:35:41;;;;;;;15.05;7.82;;;22.30;71.70;;;;;;5020084;28;20046;-72
2022/10/25 03:38:07;;;;;;;15.27;7.97;;;22.30;71.70;;;;;;5017454;28;20026;-72
2022/10/25 03:40:33;;;;;;;15.82;7.82;;;22.30;72.10;;;;;;5019832;28;20376;-72
2022/10/25 03:42:58;;;;;;;15.57;7.57;;;22.30;72.00;;;;;;5021120;28;20444;-72
2022/10/25 03:45:24;;;;;;;15.88;7.97;;;22.30;72.00;;;;;;5017744;28;20108;-72
2022/10/25 03:47:50;;;;;;;13.98;8.15;;;22.30;72.50;;;;;;5019485;28;20036;-72
2022/10/25 03:50:16;;;;;;;13.10;7.63;;;22.30;72.80;;;;;;5018801;28;20034;-72
2022/10/25 03:52:42;;;;;;;12.60;7.35;;;22.30;72.00;;;;;;5015733;28;20117;-72
2022/10/25 03:55:08;;;;;;;14.20;7.68;;;22.30;72.30;;;;;;5017395;28;20479;-72
2022/10/25 03:57:34;;;;;;;13.80;8.25;;;22.30;72.00;;;;;;5012536;28;20105;-72
2022/10/25 04:00:00;;;;;;;13.70;7.85;;;22.30;71.80;;;;;;5011543;28;20112;-72
2022/10/25 04:02:27;;;;;;;13.63;7.80;;;22.30;71.90;;;;;;5015413;28;20532;-72
2022/10/25 04:04:52;;;;;;;13.48;7.28;;;22.30;71.60;;;;;;5012166;28;20030;-72
2022/10/25 04:07:19;;;;;;;13.43;7.85;;;22.30;71.90;;;;;;5016854;28;20045;-72
2022/10/25 04:09:45;;;;;;;15.38;7.60;;;22.30;71.70;;;;;;5017841;28;20138;-72
2022/10/25 04:12:11;;;;;;;11.55;7.65;;;22.30;72.10;;;;;;5015053;28;20084;-72
2022/10/25 04:14:36;;;;;;;12.27;7.15;;;22.30;72.10;;;;;;5016904;28;20026;-72
2022/10/25 04:17:02;;;;;;;15.00;7.15;;;22.30;72.10;;;;;;5016685;28;20026;-72
2022/10/25 04:19:28;;;;;;;14.23;7.30;;;22.30;72.10;;;;;;5013251;28;20026;-71
2022/10/25 04:21:54;;;;;;;14.63;7.43;;;22.30;72.10;;;;;;5016747;28;20029;-72
2022/10/25 04:24:21;;;;;;;11.70;6.57;;;22.30;72.10;;;;;;5017770;28;20022;-72
2022/10/25 04:26:47;;;;;;;13.18;7.13;;;22.30;72.10;;;;;;5018545;28;20120;-72
2022/10/25 04:29:14;;;;;;;13.40;7.65;;;22.30;72.30;;;;;;5013226;28;20045;-72
2022/10/25 04:31:40;;;;;;;12.80;7.45;;;22.30;72.30;;;;;;5024866;28;20029;-72
2022/10/25 04:34:06;;;;;;;12.13;7.32;;;22.30;72.10;;;;;;5002340;28;20147;-72
2022/10/25 04:36:32;;;;;;;10.63;6.95;;;22.30;72.40;;;;;;5016289;28;20029;-73
2022/10/25 04:38:58;;;;;;;12.93;6.72;;;22.40;72.40;;;;;;5011867;28;20022;-73
2022/10/25 04:41:23;;;;;;;15.90;7.18;;;22.30;72.20;;;;;;4992563;28;20037;-72
2022/10/25 04:43:50;;;;;;;13.40;7.00;;;22.40;72.70;;;;;;5010491;28;20031;-73
2022/10/25 04:46:16;;;;;;;13.05;7.05;;;22.30;72.50;;;;;;5013286;28;20049;-72
2022/10/25 04:48:42;;;;;;;12.98;6.72;;;22.30;72.50;;;;;;5012507;28;20491;-72
2022/10/25 04:51:09;;;;;;;14.07;7.93;;;22.40;72.40;;;;;;5017153;28;20026;-73
2022/10/25 04:53:35;;;;;;;10.82;6.10;;;22.30;72.40;;;;;;5009486;28;20022;-73
2022/10/25 04:56:06;;;;;;;13.73;7.00;;;22.40;72.60;;;;;;5021600;28;20108;-73
2022/10/25 04:58:33;;;;;;;13.52;7.25;;;22.40;72.90;;;;;;5001591;28;20507;-73
2022/10/25 05:01:05;;;;;;;10.90;6.35;;;22.40;72.60;;;;;;5009386;28;20029;-74
2022/10/25 05:03:31;;;;;;;13.25;6.78;;;22.30;72.80;;;;;;5011033;28;20399;-73
2022/10/25 05:06:08;;;;;;;12.55;7.38;;;22.40;72.60;;;;;;5007798;28;20034;-73
2022/10/25 05:08:34;;;;;;;13.10;6.50;;;22.30;72.50;;;;;;5015247;28;20029;-73
2022/10/25 05:11:00;;;;;;;12.50;7.15;;;22.30;72.60;;;;;;5016306;28;20026;-73
2022/10/25 05:13:26;;;;;;;11.20;6.63;;;22.40;72.50;;;;;;5006184;28;20102;-72
2022/10/25 05:15:55;;;;;;;12.38;6.75;;;22.40;72.70;;;;;;5014062;28;20022;-73
2022/10/25 05:18:21;;;;;;;10.57;6.47;;;22.30;72.40;;;;;;4998476;28;20474;-73
2022/10/25 05:20:55;;;;;;;12.57;6.55;;;22.30;72.50;;;;;;5012650;28;20075;-73
2022/10/25 05:23:22;;;;;;;11.70;6.78;;;22.30;72.60;;;;;;5002361;28;20101;-72
2022/10/25 05:25:58;;;;;;;13.27;6.63;;;22.40;72.80;;;;;;5011421;28;20116;-73
2022/10/25 05:28:24;;;;;;;12.13;6.28;;;22.30;73.10;;;;;;5014891;28;20061;-72
2022/10/25 05:30:49;;;;;;;13.27;6.30;;;22.30;72.40;;;;;;5014149;28;20065;-72
2022/10/25 05:33:15;;;;;;;11.13;6.22;;;22.40;72.70;;;;;;5018569;28;20044;-72
2022/10/25 05:35:41;;;;;;;12.23;6.35;;;22.30;72.40;;;;;;5015751;28;20022;-72
2022/10/25 05:38:06;;;;;;;14.63;6.97;;;22.30;72.50;;;;;;5011035;28;20030;-72
2022/10/25 05:40:32;;;;;;;20.45;6.63;;;22.30;72.60;;;;;;5019029;28;20022;-71
2022/10/25 05:42:59;;;;;;;13.00;6.45;;;22.40;72.70;;;;;;5016840;28;20041;-71
2022/10/25 05:45:24;;;;;;;10.88;6.18;;;22.30;72.80;;;;;;5010881;28;20545;-72
2022/10/25 05:47:50;;;;;;;10.75;6.20;;;22.30;72.80;;;;;;5018367;28;20034;-72
2022/10/25 05:50:16;;;;;;;11.27;6.65;;;22.30;72.90;;;;;;5018932;28;20053;-72
2022/10/25 05:52:42;;;;;;;9.82;6.43;;;22.40;72.90;;;;;;5031181;28;20487;-72
2022/10/25 05:55:09;;;;;;;11.77;6.63;;;22.30;72.90;;;;;;5020053;28;20054;-72
2022/10/25 05:57:35;;;;;;;12.13;6.20;;;22.40;72.80;;;;;;5012184;28;20037;-72
2022/10/25 06:00:01;;;;;;;13.73;6.50;;;22.30;72.90;;;;;;5012639;28;20494;-72
2022/10/25 06:02:31;;;;;;;11.07;5.88;;;22.40;73.00;;;;;;5016323;28;20022;-72
2022/10/25 06:04:57;;;;;;;12.55;6.57;;;22.30;72.80;;;;;;5014825;28;20075;-72
2022/10/25 06:07:22;;;;;;;13.80;6.43;;;22.40;72.80;;;;;;5017720;28;20081;-72
2022/10/25 06:09:48;;;;;;;12.40;6.45;;;22.40;72.80;;;;;;5014645;28;20037;-72
2022/10/25 06:12:14;;;;;;;11.80;6.25;;;22.40;72.90;;;;;;5018365;28;20065;-72
2022/10/25 06:14:40;;;;;;;9.93;5.95;;;22.40;73.00;;;;;;5016090;28;20018;-72
2022/10/25 06:17:05;;;;;;;10.93;5.70;;;22.40;73.00;;;;;;5017851;28;20094;-72
2022/10/25 06:19:31;;;;;;;10.60;6.10;;;22.40;72.80;;;;;;5015646;28;20479;-72
2022/10/25 06:21:57;;;;;;;9.77;6.15;;;22.40;72.80;;;;;;5019585;28;20408;-72
2022/10/25 06:24:22;;;;;;;10.43;6.03;;;22.40;73.00;;;;;;5010346;28;20112;-72
2022/10/25 06:26:48;;;;;;;11.68;5.88;;;22.30;72.80;;;;;;5017981;28;20095;-72
2022/10/25 06:29:14;;;;;;;11.57;5.90;;;22.40;72.90;;;;;;5016349;28;20098;-72
2022/10/25 06:31:41;;;;;;;9.52;6.10;;;22.40;72.90;;;;;;5006204;28;20422;-72
2022/10/25 06:34:07;;;;;;;11.70;6.35;;;22.40;72.90;;;;;;5008827;28;20191;-72
2022/10/25 06:36:32;;;;;;;12.65;6.18;;;22.40;72.80;;;;;;5017739;28;20592;-72
2022/10/25 06:38:58;;;;;;;13.95;6.22;;;22.40;73.20;;;;;;5016191;28;20022;-71
2022/10/25 06:41:26;;;;;;;11.63;5.85;;;22.30;73.00;;;;;;5021214;28;20041;-71
2022/10/25 06:43:53;;;;;;;12.07;6.55;;;22.40;72.90;;;;;;5016560;28;20403;-71
2022/10/25 06:46:25;;;;;;;11.20;6.30;;;22.40;73.00;;;;;;5019065;28;20034;-71
2022/10/25 06:48:53;;;;;;;10.88;5.68;;;22.30;72.80;;;;;;5009855;28;20069;-71
2022/10/25 06:51:20;;;;;;;11.32;5.63;;;22.40;72.90;;;;;;5001415;28;20120;-72
2022/10/25 06:53:46;;;;;;;10.80;5.82;;;22.30;72.90;;;;;;5008344;28;20113;-72
2022/10/25 06:56:13;;;;;;;13.77;6.10;;;22.30;72.30;;;;;;5017162;28;20048;-72
2022/10/25 06:58:39;;;;;;;10.80;5.70;;;22.40;73.30;;;;;;5007254;28;20495;-72
2022/10/25 07:01:07;;;;;;;10.35;5.35;;;22.40;73.10;;;;;;5018805;28;20037;-71
2022/10/25 07:03:36;;;;;;;10.57;5.50;;;22.40;73.00;;;;;;5011112;28;20034;-72
2022/10/25 07:06:08;;;;;;;8.60;5.75;;;22.40;72.90;;;;;;5014299;28;20130;-71
2022/10/25 07:08:35;;;;;;;9.68;5.72;;;22.40;72.90;;;;;;5016633;28;20025;-72
2022/10/25 07:11:02;;;;;;;10.77;5.90;;;22.40;73.20;;;;;;5007809;28;20386;-71
2022/10/25 07:13:30;;;;;;;8.80;5.53;;;22.40;73.10;;;;;;5016725;28;20041;-72
2022/10/25 07:16:07;;;;;;;11.73;6.43;;;22.40;73.00;;;;;;5014838;28;20083;-72
2022/10/25 07:18:34;;;;;;;10.23;5.95;;;22.40;72.70;;;;;;5011146;28;20037;-71
2022/10/25 07:21:02;;;;;;;12.38;6.05;;;22.40;72.60;;;;;;5014273;28;20560;-72
2022/10/25 07:23:29;;;;;;;10.18;5.82;;;22.40;72.80;;;;;;5011250;28;20036;-71
2022/10/25 07:25:55;;;;;;;11.57;5.43;;;22.40;73.10;;;;;;5016030;28;20046;-71
2022/10/25 07:28:21;;;;;;;10.95;5.90;;;22.40;73.50;;;;;;5010054;28;20030;-71
2022/10/25 07:30:48;;;;;;;13.68;5.75;;;22.40;72.90;;;;;;5021913;28;20126;-71
2022/10/25 07:33:16;;;;;;;11.88;6.10;;;22.40;72.70;;;;;;5002362;28;20064;-71
2022/10/25 07:35:46;;;;;;;9.75;5.57;;;22.40;72.90;;;;;;5004933;28;20032;-71
2022/10/25 07:38:13;;;;;;;12.98;5.72;;;22.40;73.00;;;;;;5013777;28;20037;-71
2022/10/25 07:40:40;;;;;;;9.57;5.63;;;22.40;72.70;;;;;;5007366;28;20415;-72
2022/10/25 07:43:06;;;;;;;12.43;6.20;;;22.40;72.90;;;;;;5007689;28;20117;-71
2022/10/25 07:45:32;;;;;;;13.57;6.15;;;22.40;73.50;;;;;;5020037;28;20104;-71
2022/10/25 07:47:57;;;;;;;11.07;5.97;;;22.40;73.70;;;;;;5006067;28;20132;-71
2022/10/25 07:50:23;;;;;;;16.17;5.88;;;22.40;74.20;;;;;;5004699;28;20464;-73
2022/10/25 07:52:49;;;;;;;14.48;6.25;;;22.50;74.10;;;;;;5005357;28;20026;-72
2022/10/25 07:55:15;;;;;;;12.20;5.95;;;22.40;73.90;;;;;;5008866;28;20068;-71
2022/10/25 07:57:40;;;;;;;11.98;5.38;;;22.50;73.90;;;;;;4991629;28;20073;-71
2022/10/25 08:00:08;;;;;;;17.65;6.32;;;22.50;73.70;;;;;;5017053;28;20087;-71
2022/10/25 08:02:34;;;;;;;16.52;5.75;;;22.50;74.00;;;;;;5005466;28;20026;-71
2022/10/25 08:05:00;;;;;;;15.65;5.28;;;22.50;73.70;;;;;;4996733;28;20079;-71
2022/10/25 08:07:27;;;;;;;12.95;6.32;;;22.50;73.50;;;;;;5009331;28;20038;-72
2022/10/25 08:09:52;;;;;;;21.30;5.90;;;22.60;73.50;;;;;;5011141;28;20479;-72
2022/10/25 08:12:18;;;;;;;25.08;6.50;;;22.60;73.70;;;;;;5013617;28;20037;-71
2022/10/25 08:14:44;;;;;;;15.68;5.88;;;22.60;74.40;;;;;;5015242;28;20108;-71
2022/10/25 08:17:10;;;;;;;15.98;5.53;;;22.70;74.70;;;;;;4988998;28;20038;-72
2022/10/25 08:19:36;;;;;;;24.58;6.15;;;22.70;74.70;;;;;;5015632;28;20038;-71
2022/10/25 08:22:02;;;;;;;18.85;5.55;;;22.60;73.20;;;;;;5005074;28;20037;-71
2022/10/25 08:24:28;;;;;;;17.40;5.32;;;22.60;72.80;;;;;;5007665;28;20040;-72
2022/10/25 08:26:53;;;;;;;26.13;5.30;;;22.60;73.30;;;;;;5005535;28;20128;-71
2022/10/25 08:29:19;;;;;;;18.27;5.30;;;22.60;74.60;;;;;;5006471;28;20023;-73
2022/10/25 08:31:45;;;;;;;11.57;4.90;;;22.60;72.90;;;;;;5005848;28;20050;-76
2022/10/25 08:34:11;;;;;;;18.85;5.03;;;22.60;74.30;;;;;;5005215;28;20534;-73
2022/10/25 08:36:36;;;;;;;17.67;5.57;;;22.70;73.10;;;;;;5003426;28;20025;-72
2022/10/25 08:39:02;;;;;;;22.58;5.10;;;22.70;73.60;;;;;;5006730;28;20026;-71
2022/10/25 08:41:38;;;;;;;16.40;5.13;;;22.70;73.90;;;;;;5002281;28;20526;-72
2022/10/25 08:44:15;;;;;;;24.13;5.68;;;22.70;74.10;;;;;;5003158;28;20076;-74
2022/10/25 08:46:45;;;;;;;17.55;5.80;;;22.70;74.40;;;;;;4981434;28;20034;-74
2022/10/25 08:49:30;;;;;;;22.48;6.25;;;22.60;73.70;;;;;;5007049;28;20119;-72
2022/10/25 08:51:58;;;;;;;14.13;5.85;;;22.50;68.70;;;;;;5008585;28;20045;-72
2022/10/25 08:54:45;;;;;;;18.55;5.47;;;22.40;69.10;;;;;;5024280;28;20486;-72
2022/10/25 08:57:25;;;;;;;12.88;5.35;;;22.40;71.40;;;;;;5001740;28;20025;-72
2022/10/25 08:59:57;;;;;;;13.65;4.90;;;22.40;71.50;;;;;;4998505;28;20034;-72
2022/10/25 09:02:45;;;;;;;22.10;5.88;;;22.50;71.10;;;;;;5005950;28;20034;-72
2022/10/25 09:05:36;;;;;;;16.40;5.40;;;22.50;70.70;;;;;;5006500;28;20044;-72
2022/10/25 09:08:25;;;;;;;14.07;5.63;;;22.50;70.70;;;;;;5006077;28;20091;-72
2022/10/25 09:11:01;;;;;;;11.40;5.03;;;22.50;70.60;;;;;;5006600;28;20026;-71
2022/10/25 09:13:49;;;;;;;15.80;4.78;;;22.60;70.70;;;;;;5005794;28;20037;-72
2022/10/25 09:16:15;;;;;;;12.43;5.00;;;22.60;70.80;;;;;;5006282;28;20390;-72
2022/10/25 09:18:51;;;;;;;11.73;5.10;;;22.60;70.80;;;;;;5004291;28;20034;-72
2022/10/25 09:21:21;;;;;;;10.55;4.57;;;22.60;70.90;;;;;;5006159;28;20487;-72
2022/10/25 09:24:11;;;;;;;10.80;4.40;;;22.60;70.90;;;;;;5005389;28;20062;-72
2022/10/25 09:26:45;;;;;;;15.50;4.63;;;22.60;71.00;;;;;;5005994;28;20030;-72
2022/10/25 09:29:27;;;;;;;19.50;5.03;;;22.60;71.10;;;;;;5005810;28;20026;-72
2022/10/25 09:31:58;;;;;;;17.45;4.80;;;22.60;71.20;;;;;;5001519;28;20407;-72
2022/10/25 09:34:29;;;;;;;11.02;4.93;;;22.60;71.10;;;;;;4967377;28;20034;-72
2022/10/25 09:37:12;;;;;;;13.85;4.43;;;22.60;71.20;;;;;;4989119;28;20117;-72
2022/10/25 09:39:54;;;;;;;14.15;4.55;;;22.60;71.20;;;;;;4996999;28;20475;-72
2022/10/25 09:42:43;;;;;;;16.67;4.93;;;22.70;71.40;;;;;;5010717;28;20034;-72
2022/10/25 09:45:39;;;;;;;11.45;4.32;;;22.60;71.40;;;;;;5008425;28;20030;-72
2022/10/25 09:48:26;;;;;;;13.50;4.50;;;22.60;71.30;;;;;;5056313;28;20082;-72
2022/10/25 09:51:09;;;;;;;11.68;4.30;;;22.70;71.40;;;;;;5018299;28;20030;-72
2022/10/25 09:53:39;;;;;;;10.43;4.75;;;22.60;71.40;;;;;;5006989;28;20425;-72
2022/10/25 09:56:05;;;;;;;13.65;4.18;;;22.70;71.50;;;;;;5030274;28;20054;-71
2022/10/25 09:58:49;;;;;;;11.38;4.38;;;22.60;71.20;;;;;;5017691;28;20025;-72
2022/10/25 10:01:19;;;;;;;8.50;4.03;;;22.70;71.40;;;;;;5011514;28;20109;-72
2022/10/25 10:03:44;;;;;;;12.00;4.18;;;22.70;71.50;;;;;;5005049;28;20026;-72
2022/10/25 10:06:30;;;;;;;10.70;3.92;;;22.60;71.50;;;;;;5042442;28;20021;-73
2022/10/25 10:08:59;;;;;;;13.48;4.75;;;22.60;71.50;;;;;;5068020;28;20062;-72
2022/10/25 10:11:26;;;;;;;9.80;4.22;;;22.70;71.60;;;;;;5003711;28;20491;-72
2022/10/25 10:14:24;;;;;;;9.40;4.03;;;22.60;71.50;;;;;;5031767;28;20027;-72
2022/10/25 10:16:55;;;;;;;11.48;4.63;;;22.60;71.60;;;;;;5059122;28;20036;-72
2022/10/25 10:19:29;;;;;;;13.18;4.70;;;22.60;71.60;;;;;;5106467;28;20024;-72
2022/10/25 10:22:06;;;;;;;10.50;4.60;;;22.70;71.60;;;;;;5089844;28;20483;-72
2022/10/25 10:24:35;;;;;;;14.00;4.82;;;22.60;71.60;;;;;;4988488;28;20030;-72
2022/10/25 10:27:07;;;;;;;14.48;4.55;;;22.70;71.60;;;;;;5006167;28;20117;-72
2022/10/25 10:29:49;;;;;;;16.88;4.38;;;22.60;71.10;;;;;;5092357;28;20032;-72
2022/10/25 10:32:25;;;;;;;10.60;4.18;;;22.60;71.20;;;;;;5109247;28;20039;-72
2022/10/25 10:34:54;;;;;;;12.20;4.30;;;22.60;71.40;;;;;;5110601;27;20055;-72
2022/10/25 10:37:24;;;;;;;15.55;5.32;;;22.60;71.30;;;;;;5009123;28;20095;-72
2022/10/25 10:39:58;;;;;;;13.95;4.80;;;22.60;71.10;;;;;;5012280;28;20552;-72
2022/10/25 10:42:36;;;;;;;14.65;4.88;;;22.60;71.00;;;;;;5008403;28;20045;-76
2022/10/25 10:45:07;;;;;;;26.73;14.63;;;22.60;70.60;;;;;;5008175;28;20037;-72
2022/10/25 10:47:35;;;;;;;29.08;13.80;;;22.50;68.20;;;;;;5032783;28;20409;-73
2022/10/25 10:50:21;;;;;;;24.65;12.07;;;22.50;68.40;;;;;;5111312;28;20382;-72
2022/10/25 10:53:31;;;;;;;33.70;10.60;;;22.50;68.70;;;;;;5109095;28;20450;-72
2022/10/25 10:56:06;;;;;;;;;;;22.40;68.70;;;;;;5111574;28;20077;-72
2022/10/25 10:58:34;;;;;;;31.70;10.82;;;22.40;68.80;;;;;;5111043;28;19918;-72
2022/10/25 11:01:03;;;;;;;21.52;12.57;;;22.40;68.90;;;;;;5110239;28;20019;-72
2022/10/25 11:03:41;;;;;;;20.65;12.10;;;22.50;69.00;;;;;;5111422;27;20031;-72
2022/10/25 11:06:18;;;;;;;23.48;11.82;;;22.50;69.10;;;;;;5111639;28;20028;-72
2022/10/25 11:08:46;;;;;;;24.83;12.35;;;22.50;69.20;;;;;;5112940;28;20035;-72
2022/10/25 11:11:19;;;;;;;20.70;11.48;;;22.50;69.30;;;;;;5112306;28;20028;-72
2022/10/25 11:13:55;;;;;;;22.52;12.23;;;22.50;69.30;;;;;;5110301;28;20554;-72
2022/10/25 11:16:54;;;;;;;18.00;11.55;;;22.50;69.30;;;;;;5112231;28;20028;-72
2022/10/25 11:19:20;;;;;;;;;;;22.50;69.40;;;;;;5112386;28;20485;-72
2022/10/25 11:22:13;;;;;;;18.73;11.73;;;22.50;69.40;;;;;;5111823;28;19918;-72
2022/10/25 11:24:52;;;;;;;19.50;11.90;;;22.50;69.40;;;;;;5111859;28;20081;-72
2022/10/25 11:27:47;;;;;;;19.15;11.00;;;22.50;69.40;;;;;;5111872;28;20469;-73
2022/10/25 11:30:19;;;;;;;19.27;12.20;;;22.50;69.40;;;;;;5111608;28;20024;-73
2022/10/25 11:33:16;;;;;;;20.15;10.63;;;22.50;69.50;;;;;;5110165;28;20031;-73
2022/10/25 11:36:00;;;;;;;19.58;11.18;;;22.50;69.50;;;;;;5007931;28;20045;-73
2022/10/25 11:38:41;;;;;;;29.63;11.43;;;22.50;70.00;;;;;;5005846;28;20384;-72
2022/10/25 11:41:19;;;;;;;22.80;11.65;;;22.50;70.20;;;;;;5008215;28;20029;-72
2022/10/25 11:44:20;;;;;;;20.23;10.90;;;22.50;69.80;;;;;;4988163;28;20034;-72
2022/10/25 11:46:59;;;;;;;23.60;11.38;;;22.50;70.00;;;;;;4992628;28;20057;-72
2022/10/25 11:49:50;;;;;;;23.90;11.25;;;22.60;70.40;;;;;;4999259;28;20162;-72
2022/10/25 11:52:35;;;;;;;20.52;10.63;;;22.50;70.50;;;;;;5005072;28;20030;-72
2022/10/25 11:55:08;;;;;;;20.75;10.93;;;22.60;70.20;;;;;;5004296;28;20038;-74
2022/10/25 11:58:00;;;;;;;18.35;10.68;;;22.50;70.40;;;;;;5010192;28;20045;-75
2022/10/25 12:00:34;;;;;;;16.40;8.27;;;22.50;70.50;;;;;;4996198;28;20120;-74
2022/10/25 12:03:04;;;;;;;16.52;9.02;;;22.50;69.70;;;;;;5006453;28;20483;-75
2022/10/25 12:05:39;;;;;;;;;;;22.40;70.00;;;;;;5006963;28;20501;-75
2022/10/25 12:08:57;;;;;;;19.20;5.90;;;22.40;69.80;;;;;;5008363;28;20270;-75
2022/10/25 12:11:32;;;;;;;13.65;4.40;;;22.40;67.10;;;;;;5024230;28;20482;-76
2022/10/25 12:14:11;;;;;;;12.90;4.28;;;22.40;65.70;;;;;;5007409;28;20110;-75
2022/10/25 12:16:39;;;;;;;10.90;4.27;;;22.30;67.20;;;;;;5007641;28;20388;-75
2022/10/25 12:19:25;;;;;;;20.58;3.65;;;22.30;65.80;;;;;;4999734;28;20099;-74
2022/10/25 12:21:55;;;;;;;19.38;4.47;;;22.30;66.50;;;;;;5003513;28;20072;-75
2022/10/25 12:24:33;;;;;;;20.15;4.60;;;22.30;66.10;;;;;;5007435;28;20037;-75
2022/10/25 12:26:59;;;;;;;11.38;3.15;;;22.30;66.10;;;;;;5006800;28;20395;-75
2022/10/25 12:29:37;;;;;;;17.05;3.78;;;22.30;66.10;;;;;;5006959;28;20113;-76
2022/10/25 12:32:09;;;;;;;12.18;2.90;;;22.30;65.80;;;;;;5006854;28;20030;-76
2022/10/25 12:34:46;;;;;;;11.82;3.08;;;22.30;65.50;;;;;;5007634;28;20026;-76
2022/10/25 12:37:34;;;;;;;9.88;3.25;;;22.30;65.20;;;;;;5006944;28;20522;-75
2022/10/25 12:40:00;;;;;;;15.48;2.67;;;22.30;65.30;;;;;;5007490;28;20488;-75
2022/10/25 12:42:32;;;;;;;10.77;2.50;;;22.20;65.20;;;;;;5006784;28;20037;-75
2022/10/25 12:45:24;;;;;;;10.70;2.42;;;22.20;64.40;;;;;;5007557;28;20030;-75
2022/10/25 12:48:12;;;;;;;7.20;2.10;;;22.20;64.40;;;;;;5007398;28;20041;-75
2022/10/25 12:51:01;;;;;;;10.90;2.38;;;22.10;64.00;;;;;;5007422;28;20038;-75
2022/10/25 12:54:01;;;;;;;8.90;2.28;;;22.20;63.40;;;;;;5006128;28;20458;-75
2022/10/25 12:56:58;;;;;;;9.43;2.30;;;22.10;63.80;;;;;;5005907;28;20026;-75
2022/10/25 12:59:35;;;;;;;12.32;2.70;;;22.10;63.00;;;;;;5006104;28;20034;-75